Time;durP1;ratioP1;P1;durP2;ratioP2;P2;SDS_P1;SDS_P2;PMS_P1;PMS_P2;Temp;Humidity;BMP_temperature;BMP_pressure;BME280_temperature;BME280_humidity;BME280_pressure;Samples;Min_cycle;Max_cycle;Signal;HPM_P1;HPM_P2
2023/10/25 00:01:35;;;;;;;;;;;;;;;19.90;61.92;99764.97;5038749;28;6042;-71
2023/10/25 00:04:01;;;;;;;;;;;;;;;19.89;61.95;99761.38;5037487;28;2090;-71
2023/10/25 00:06:28;;;;;;;;;;;;;;;19.89;61.80;99755.63;5036021;28;2171;-72
2023/10/25 00:08:54;;;;;;;;;;;;;;;19.88;61.77;99763.50;5037798;28;2101;-71
2023/10/25 00:11:21;;;;;;;;;;;;;;;19.87;61.80;99767.03;5040521;28;1940;-72
2023/10/25 00:13:47;;;;;;;;;;;;;;;19.87;61.74;99761.31;5039133;28;1598;-71
2023/10/25 00:16:14;;;;;;;;;;;;;;;19.88;62.05;99759.88;5035980;28;2073;-71
2023/10/25 00:18:40;;;;;;;;;;;;;;;19.88;61.77;99768.50;5039538;28;2200;-72
2023/10/25 00:21:07;;;;;;;;;;;;;;;19.87;61.72;99761.31;5038466;28;2118;-71
2023/10/25 00:23:33;;;;;;;;;;;;;;;19.87;61.98;99761.31;5038622;28;2193;-71
2023/10/25 00:26:00;;;;;;;;;;;;;;;19.88;61.78;99765.63;5039573;28;2114;-71
2023/10/25 00:28:26;;;;;;;;;;;;;;;19.87;61.79;99764.16;5035980;28;2122;-71
2023/10/25 00:30:52;;;;;;;;;;;;;;;19.86;61.63;99763.44;5038375;28;6135;-71
2023/10/25 00:33:19;;;;;;;;;;;;;;;19.86;61.88;99768.47;5038888;28;2172;-71
2023/10/25 00:35:45;;;;;;;;;;;;;;;19.87;61.79;99759.16;5027631;28;2125;-71
2023/10/25 00:38:12;;;;;;;;;;;;;;;19.87;62.03;99767.03;5039090;28;2125;-71
2023/10/25 00:40:38;;;;;;;;;;;;;;;19.86;61.69;99757.69;5037702;28;2227;-71
2023/10/25 00:43:13;;;;;;;;;;;;;;;19.86;61.99;99760.56;5023309;28;2162;-72
2023/10/25 00:45:40;;;;;;;;;;;;;;;19.86;61.81;99763.44;5038961;28;2014;-71
2023/10/25 00:48:07;;;;;;;;;;;;;;;19.86;61.73;99751.94;5005864;28;2065;-72
2023/10/25 00:50:33;;;;;;;;;;;;;;;19.87;61.78;99752.69;5023158;28;2082;-71
2023/10/25 00:53:00;;;;;;;;;;;;;;;19.85;62.13;99749.75;5038024;28;2165;-70
2023/10/25 00:55:26;;;;;;;;;;;;;;;19.86;61.72;99756.97;5022347;28;2146;-72
2023/10/25 00:57:52;;;;;;;;;;;;;;;19.87;61.71;99741.19;5037642;28;2154;-71
2023/10/25 01:00:19;;;;;;;;;;;;;;;19.86;61.72;99739.72;5005694;28;6225;-71
2023/10/25 01:02:45;;;;;;;;;;;;;;;19.85;61.89;99744.00;5039989;28;1948;-71
2023/10/25 01:05:12;;;;;;;;;;;;;;;19.84;61.64;99748.28;5039597;28;2212;-71
2023/10/25 01:07:38;;;;;;;;;;;;;;;19.84;61.82;99749.00;5006651;28;2234;-71
2023/10/25 01:10:05;;;;;;;;;;;;;;;19.85;61.63;99741.13;5039463;28;2083;-71
2023/10/25 01:12:31;;;;;;;;;;;;;;;19.85;61.57;99744.72;5038136;28;2152;-71
2023/10/25 01:14:58;;;;;;;;;;;;;;;19.85;61.89;99746.88;5037976;28;2069;-72
2023/10/25 01:17:24;;;;;;;;;;;;;;;19.84;61.62;99742.53;5036698;28;2204;-71
2023/10/25 01:19:51;;;;;;;;;;;;;;;19.85;61.73;99744.00;5035194;28;2150;-71
2023/10/25 01:22:17;;;;;;;;;;;;;;;19.84;61.72;99739.66;5020293;28;2198;-72
2023/10/25 01:24:43;;;;;;;;;;;;;;;19.84;61.57;99731.06;5039892;28;2007;-71
2023/10/25 01:27:10;;;;;;;;;;;;;;;19.84;61.59;99737.53;5036316;28;2075;-71
2023/10/25 01:29:36;;;;;;;;;;;;;;;19.83;61.78;99738.91;5033348;28;2093;-71
2023/10/25 01:32:03;;;;;;;;;;;;;;;19.84;61.69;99743.28;5016201;28;6648;-71
2023/10/25 01:34:29;;;;;;;;;;;;;;;19.83;61.55;99735.31;5041108;28;2165;-71
2023/10/25 01:36:56;;;;;;;;;;;;;;;19.84;61.76;99748.28;5025482;28;2153;-72
2023/10/25 01:39:24;;;;;;;;;;;;;;;19.83;61.55;99746.81;5040171;28;2287;-71
2023/10/25 01:41:50;;;;;;;;;;;;;;;19.83;61.63;99743.94;5042183;28;2147;-71
2023/10/25 01:44:17;;;;;;;;;;;;;;;19.82;61.70;99746.09;5024942;28;2183;-72
2023/10/25 01:46:43;;;;;;;;;;;;;;;19.83;61.69;99752.56;5040890;28;2157;-71
2023/10/25 01:49:10;;;;;;;;;;;;;;;19.82;61.72;99759.72;5042855;28;1960;-71
2023/10/25 01:51:36;;;;;;;;;;;;;;;19.83;61.75;99753.28;5041388;28;2208;-72
2023/10/25 01:54:02;;;;;;;;;;;;;;;19.83;61.65;99758.28;5040819;28;2192;-72
2023/10/25 01:56:29;;;;;;;;;;;;;;;19.83;61.56;99764.03;5023249;28;1913;-72
2023/10/25 01:58:55;;;;;;;;;;;;;;;19.82;61.58;99754.69;5029975;28;2218;-71
2023/10/25 02:01:22;;;;;;;;;;;;;;;19.82;61.57;99763.31;5024704;28;6117;-71
2023/10/25 02:03:48;;;;;;;;;;;;;;;19.82;61.54;99760.44;5030826;28;2114;-72
2023/10/25 02:06:15;;;;;;;;;;;;;;;19.82;61.49;99751.09;5040468;28;1951;-72
2023/10/25 02:08:41;;;;;;;;;;;;;;;19.82;61.63;99753.97;5040553;28;2050;-71
2023/10/25 02:11:08;;;;;;;;;;;;;;;19.81;61.64;99758.22;5040656;28;2238;-72
2023/10/25 02:13:34;;;;;;;;;;;;;;;19.80;61.66;99753.91;5021674;28;2180;-72
2023/10/25 02:16:10;;;;;;;;;;;;;;;19.80;61.67;99763.25;5024909;28;1959;-71
2023/10/25 02:18:36;;;;;;;;;;;;;;;19.80;61.71;99771.13;5024714;28;2471;-72
2023/10/25 02:21:03;;;;;;;;;;;;;;;19.80;61.41;99771.88;5040319;28;2719;-72
2023/10/25 02:23:30;;;;;;;;;;;;;;;19.81;61.42;99767.59;5038955;28;2124;-72
2023/10/25 02:25:56;;;;;;;;;;;;;;;19.80;61.63;99766.13;5026979;28;1631;-71
2023/10/25 02:28:24;;;;;;;;;;;;;;;19.80;61.45;99765.38;5022993;28;2190;-72
2023/10/25 02:30:50;;;;;;;;;;;;;;;19.80;61.53;99776.88;5040897;28;6312;-72
2023/10/25 02:33:17;;;;;;;;;;;;;;;19.79;61.45;99775.41;5041250;28;2655;-71
2023/10/25 02:35:46;;;;;;;;;;;;;;;19.80;61.38;99782.63;5023093;28;2110;-72
2023/10/25 02:38:12;;;;;;;;;;;;;;;19.80;61.46;99779.75;5038962;28;2180;-71
2023/10/25 02:40:39;;;;;;;;;;;;;;;19.79;61.45;99781.13;5039469;28;2285;-71
2023/10/25 02:43:05;;;;;;;;;;;;;;;19.79;61.60;99776.16;5041210;28;2027;-71
2023/10/25 02:45:31;;;;;;;;;;;;;;;19.78;61.52;99782.56;5039216;28;2133;-72
2023/10/25 02:47:58;;;;;;;;;;;;;;;19.78;61.56;99779.69;5042252;28;2050;-71
2023/10/25 02:50:24;;;;;;;;;;;;;;;19.77;61.58;99784.72;5040322;28;2170;-72
2023/10/25 02:52:51;;;;;;;;;;;;;;;19.79;61.58;99778.28;5040456;28;2237;-72
2023/10/25 02:55:17;;;;;;;;;;;;;;;19.80;61.53;99789.09;5040410;28;2089;-72
2023/10/25 02:57:44;;;;;;;;;;;;;;;19.82;61.23;99785.56;5041039;28;2117;-71
2023/10/25 03:00:10;;;;;;;;;;;;;;;19.83;61.29;99793.50;5038866;28;6205;-71
2023/10/25 03:02:37;;;;;;;;;;;;;;;19.85;61.80;99796.44;5039659;28;2193;-71
2023/10/25 03:05:03;;;;;;;;;;;;;;;19.85;62.13;99793.56;5041736;28;1766;-72
2023/10/25 03:07:30;;;;;;;;;;;;;;;19.86;62.03;99800.06;5039750;28;2193;-71
2023/10/25 03:09:56;;;;;;;;;;;;;;;19.87;62.27;99799.38;5039391;28;2078;-71
2023/10/25 03:12:22;;;;;;;;;;;;;;;19.88;62.42;99800.09;5039917;28;2113;-72
2023/10/25 03:14:49;;;;;;;;;;;;;;;19.87;62.04;99804.38;5025465;28;1571;-71
2023/10/25 03:17:15;;;;;;;;;;;;;;;19.87;62.13;99804.38;5020949;28;2145;-72
2023/10/25 03:19:42;;;;;;;;;;;;;;;19.87;62.05;99810.13;5039383;28;2434;-71
2023/10/25 03:22:08;;;;;;;;;;;;;;;19.88;61.77;99806.59;5039819;28;2154;-71
2023/10/25 03:24:35;;;;;;;;;;;;;;;19.88;62.10;99811.59;5040320;28;2207;-71
2023/10/25 03:27:01;;;;;;;;;;;;;;;19.86;61.85;99820.91;5039555;28;2161;-71
2023/10/25 03:29:27;;;;;;;;;;;;;;;19.87;61.94;99821.63;5039541;28;2192;-72
2023/10/25 03:31:58;;;;;;;;;;;;;;;19.87;61.85;99813.00;5038486;28;6207;-70
2023/10/25 03:34:24;;;;;;;;;;;;;;;19.85;61.93;99819.41;5019653;28;2165;-71
2023/10/25 03:36:51;;;;;;;;;;;;;;;19.86;62.10;99829.53;5039794;28;2149;-71
2023/10/25 03:39:17;;;;;;;;;;;;;;;19.86;62.00;99820.19;5038276;28;2161;-71
2023/10/25 03:41:44;;;;;;;;;;;;;;;19.85;62.12;99819.41;5037636;28;2129;-70
2023/10/25 03:44:10;;;;;;;;;;;;;;;19.87;61.92;99827.38;5041947;28;2012;-71
2023/10/25 03:46:37;;;;;;;;;;;;;;;19.86;61.90;99831.66;5036979;28;2011;-72
2023/10/25 03:49:03;;;;;;;;;;;;;;;19.85;61.93;99818.69;5039598;28;2173;-71
2023/10/25 03:51:30;;;;;;;;;;;;;;;19.85;61.95;99824.44;5037311;28;2271;-72
2023/10/25 03:53:56;;;;;;;;;;;;;;;19.84;61.88;99820.84;5040587;28;2192;-71
2023/10/25 03:56:23;;;;;;;;;;;;;;;19.84;61.99;99825.84;5022582;28;2194;-71
2023/10/25 03:58:49;;;;;;;;;;;;;;;19.83;61.86;99819.34;5039069;28;2157;-71
2023/10/25 04:01:16;;;;;;;;;;;;;;;19.84;62.01;99828.72;5018309;28;6077;-71
2023/10/25 04:03:42;;;;;;;;;;;;;;;19.83;61.92;99822.22;5038121;28;2113;-72
2023/10/25 04:06:09;;;;;;;;;;;;;;;19.84;61.51;99829.44;5038434;28;2436;-72
2023/10/25 04:08:35;;;;;;;;;;;;;;;19.85;61.69;99827.31;5041860;28;2445;-71
2023/10/25 04:11:02;;;;;;;;;;;;;;;19.86;61.75;99831.66;5039265;28;1597;-71
2023/10/25 04:13:28;;;;;;;;;;;;;;;19.86;62.09;99820.91;5041543;28;1824;-71
2023/10/25 04:15:55;;;;;;;;;;;;;;;19.87;62.43;99822.34;5039835;28;2267;-71
2023/10/25 04:18:21;;;;;;;;;;;;;;;19.88;62.93;99823.09;5040001;28;2085;-70
2023/10/25 04:20:48;;;;;;;;;;;;;;;19.88;62.82;99820.97;5040501;28;1926;-71
2023/10/25 04:23:14;;;;;;;;;;;;;;;19.88;62.60;99823.84;5040287;28;2180;-71
2023/10/25 04:25:41;;;;;;;;;;;;;;;19.89;62.88;99813.06;5041199;28;2173;-68
2023/10/25 04:28:07;;;;;;;;;;;;;;;19.88;62.77;99828.84;5036813;28;2198;-68
2023/10/25 04:30:34;;;;;;;;;;;;;;;19.88;62.59;99823.84;5040018;28;6489;-68
2023/10/25 04:33:01;;;;;;;;;;;;;;;19.88;62.75;99820.22;5038367;28;2081;-68
2023/10/25 04:35:27;;;;;;;;;;;;;;;19.80;62.31;99817.81;5035816;28;2248;-67
2023/10/25 04:37:55;;;;;;;;;;;;;;;19.89;62.12;99818.81;5033114;28;2193;-67
2023/10/25 04:40:21;;;;;;;;;;;;;;;19.92;61.94;99822.50;5038168;28;2267;-67
2023/10/25 04:42:51;;;;;;;;;;;;;;;19.87;62.25;99815.88;5036767;28;2171;-68
2023/10/25 04:45:18;;;;;;;;;;;;;;;19.87;61.87;99804.38;5036617;28;2290;-67
2023/10/25 04:47:44;;;;;;;;;;;;;;;19.88;61.47;99811.59;5041416;28;2383;-67
2023/10/25 04:50:10;;;;;;;;;;;;;;;19.91;61.87;99810.28;5039921;28;3223;-67
2023/10/25 04:52:37;;;;;;;;;;;;;;;19.91;61.56;99801.66;5039106;28;2193;-67
2023/10/25 04:55:03;;;;;;;;;;;;;;;19.94;61.99;99802.44;5041006;28;2369;-67
2023/10/25 04:57:32;;;;;;;;;;;;;;;19.94;61.77;99793.81;5041992;28;1956;-67
2023/10/25 04:59:59;;;;;;;;;;;;;;;19.95;62.15;99798.16;5040251;28;2192;-68
2023/10/25 05:02:25;;;;;;;;;;;;;;;19.95;62.12;99784.53;5040538;28;6157;-67
2023/10/25 05:04:51;;;;;;;;;;;;;;;19.94;62.12;99785.94;5042496;28;2240;-67
2023/10/25 05:07:18;;;;;;;;;;;;;;;19.95;61.81;99781.69;5039670;28;2153;-67
2023/10/25 05:09:44;;;;;;;;;;;;;;;19.95;61.94;99792.41;5038973;28;2130;-67
2023/10/25 05:12:11;;;;;;;;;;;;;;;19.95;62.00;99796.03;5039304;28;2363;-67
2023/10/25 05:14:37;;;;;;;;;;;;;;;19.95;62.09;99783.78;5039960;28;2042;-67
2023/10/25 05:17:06;;;;;;;;;;;;;;;19.95;62.17;99786.66;5041189;28;2186;-67
2023/10/25 05:19:33;;;;;;;;;;;;;;;19.95;62.28;99792.41;5039592;28;2166;-67
2023/10/25 05:21:59;;;;;;;;;;;;;;;19.94;62.41;99788.81;5040453;28;2031;-67
2023/10/25 05:24:26;;;;;;;;;;;;;;;19.94;62.56;99793.81;5022899;28;2415;-67
2023/10/25 05:26:52;;;;;;;;;;;;;;;19.95;62.29;99780.91;5042569;28;2213;-67
2023/10/25 05:29:19;;;;;;;;;;;;;;;19.94;62.28;99794.56;5039287;28;2309;-67
2023/10/25 05:31:45;;;;;;;;;;;;;;;19.94;62.41;99788.09;5040236;28;6187;-67
2023/10/25 05:34:12;;;;;;;;;;;;;;;19.93;62.46;99790.22;5042622;28;2202;-67
2023/10/25 05:36:38;;;;;;;;;;;;;;;19.93;62.32;99795.97;5039559;28;2286;-67
2023/10/25 05:39:05;;;;;;;;;;;;;;;19.93;62.32;99795.22;5040533;28;2219;-67
2023/10/25 05:41:35;;;;;;;;;;;;;;;19.92;62.58;99800.22;5040151;28;2228;-67
2023/10/25 05:44:13;;;;;;;;;;;;;;;19.91;62.27;99795.91;5040858;28;2160;-67
2023/10/25 05:46:39;;;;;;;;;;;;;;;19.91;62.35;99786.56;5040123;28;2086;-67
2023/10/25 05:49:06;;;;;;;;;;;;;;;19.92;62.19;99793.75;5039367;28;2050;-67
2023/10/25 05:51:32;;;;;;;;;;;;;;;19.90;62.36;99788.69;5039728;28;2141;-67
2023/10/25 05:53:59;;;;;;;;;;;;;;;19.90;62.42;99794.41;5038081;28;2195;-67
2023/10/25 05:56:26;;;;;;;;;;;;;;;19.90;62.30;99790.81;5041562;28;2185;-67
2023/10/25 05:58:56;;;;;;;;;;;;;;;19.91;62.33;99792.31;5039904;28;2189;-67
2023/10/25 06:01:25;;;;;;;;;;;;;;;19.91;62.37;99798.06;5038993;28;6089;-67
2023/10/25 06:03:51;;;;;;;;;;;;;;;19.91;62.22;99804.53;5022492;28;2173;-67
2023/10/25 06:06:18;;;;;;;;;;;;;;;19.92;62.16;99811.72;5023126;28;2193;-67
2023/10/25 06:08:45;;;;;;;;;;;;;;;19.93;62.30;99815.31;5022177;28;2130;-67
2023/10/25 06:11:11;;;;;;;;;;;;;;;19.93;62.08;99806.72;5039192;28;2049;-67
2023/10/25 06:13:37;;;;;;;;;;;;;;;19.94;61.80;99808.91;5038670;28;2235;-67
2023/10/25 06:16:04;;;;;;;;;;;;;;;19.96;61.51;99822.63;5042184;28;1905;-67
2023/10/25 06:18:30;;;;;;;;;;;;;;;19.97;61.74;99824.81;5040106;28;2006;-68
2023/10/25 06:20:57;;;;;;;;;;;;;;;19.97;61.68;99824.81;5043443;28;2081;-67
2023/10/25 06:23:23;;;;;;;;;;;;;;;19.98;61.60;99825.56;5041905;28;2150;-67
2023/10/25 06:25:50;;;;;;;;;;;;;;;19.98;61.65;99825.56;5043818;28;2307;-67
2023/10/25 06:28:16;;;;;;;;;;;;;;;19.99;61.58;99821.28;5043951;28;2007;-67
2023/10/25 06:30:45;;;;;;;;;;;;;;;19.98;61.82;99826.28;5042241;28;6614;-67
2023/10/25 06:33:12;;;;;;;;;;;;;;;19.98;61.85;99822.69;5041373;28;2192;-68
2023/10/25 06:35:38;;;;;;;;;;;;;;;19.97;61.99;99824.81;5042976;28;2129;-67
2023/10/25 06:38:05;;;;;;;;;;;;;;;19.96;61.75;99826.22;5042537;28;2126;-67
2023/10/25 06:40:31;;;;;;;;;;;;;;;19.94;61.74;99829.03;5041002;28;2149;-67
2023/10/25 06:42:57;;;;;;;;;;;;;;;19.73;60.37;99838.41;5043304;28;2066;-67
2023/10/25 06:45:24;;;;;;;;;;;;;;;19.60;59.62;99828.63;5042219;28;2165;-67
2023/10/25 06:47:51;;;;;;;;;;;;;;;19.47;58.81;99833.25;5041881;28;1956;-67
2023/10/25 06:50:18;;;;;;;;;;;;;;;19.50;58.59;99831.16;5042843;28;2702;-67
2023/10/25 06:52:44;;;;;;;;;;;;;;;19.43;58.45;99839.56;5041017;28;2368;-67
2023/10/25 06:55:11;;;;;;;;;;;;;;;19.65;58.08;99835.97;5041243;28;2094;-67
2023/10/25 06:57:37;;;;;;;;;;;;;;;19.75;58.05;99832.75;5042159;28;2091;-67
2023/10/25 07:00:08;;;;;;;;;;;;;;;19.85;59.20;99830.91;5041732;28;6282;-69
2023/10/25 07:02:40;;;;;;;;;;;;;;;19.88;58.71;99834.56;5043011;28;2145;-68
2023/10/25 07:05:10;;;;;;;;;;;;;;;19.89;58.98;99833.19;5024081;28;2087;-71
2023/10/25 07:07:36;;;;;;;;;;;;;;;19.91;58.80;99838.28;5042059;28;2129;-68
2023/10/25 07:10:03;;;;;;;;;;;;;;;19.90;58.63;99837.53;5010745;28;1694;-67
2023/10/25 07:12:32;;;;;;;;;;;;;;;19.90;58.34;99846.13;5043777;28;1642;-68
2023/10/25 07:14:59;;;;;;;;;;;;;;;19.85;58.67;99835.94;5040874;28;2134;-68
2023/10/25 07:17:27;;;;;;;;;;;;;;;19.88;59.15;99837.44;5042600;28;2102;-69
2023/10/25 07:19:53;;;;;;;;;;;;;;;19.90;58.94;99837.53;5042914;28;2176;-70
2023/10/25 07:22:20;;;;;;;;;;;;;;;19.91;58.99;99841.16;5043354;28;1914;-68
2023/10/25 07:24:46;;;;;;;;;;;;;;;19.89;58.72;99836.06;5041578;28;2053;-69
2023/10/25 07:27:13;;;;;;;;;;;;;;;19.95;58.83;99830.53;5043628;28;2070;-68
2023/10/25 07:29:39;;;;;;;;;;;;;;;19.96;58.53;99834.84;5042977;28;1781;-67
2023/10/25 07:32:06;;;;;;;;;;;;;;;19.93;58.50;99836.19;5041913;28;6620;-68
2023/10/25 07:34:32;;;;;;;;;;;;;;;19.90;58.99;99833.91;5041997;28;1758;-71
2023/10/25 07:36:58;;;;;;;;;;;;;;;19.95;59.01;99836.25;5044002;28;1612;-72
2023/10/25 07:39:25;;;;;;;;;;;;;;;19.98;58.47;99837.78;5042831;28;1661;-70
2023/10/25 07:41:52;;;;;;;;;;;;;;;19.97;58.94;99842.06;5044398;28;1914;-69
2023/10/25 07:44:18;;;;;;;;;;;;;;;19.95;58.97;99833.38;5042827;28;2105;-69
2023/10/25 07:46:44;;;;;;;;;;;;;;;19.94;58.91;99831.91;5041453;28;2155;-68
2023/10/25 07:49:11;;;;;;;;;;;;;;;19.97;58.75;99830.56;5041955;28;2160;-69
2023/10/25 07:51:38;;;;;;;;;;;;;;;19.96;59.11;99834.13;5041860;28;1603;-69
2023/10/25 07:54:04;;;;;;;;;;;;;;;19.96;59.11;99826.22;5041069;28;2073;-69
2023/10/25 07:56:30;;;;;;;;;;;;;;;19.95;59.44;99819.03;5042080;28;2425;-69
2023/10/25 07:59:00;;;;;;;;;;;;;;;19.97;59.27;99813.31;5041465;28;2137;-69
2023/10/25 08:01:26;;;;;;;;;;;;;;;19.97;59.10;99813.31;5041789;28;6571;-68
2023/10/25 08:03:53;;;;;;;;;;;;;;;19.95;59.38;99804.66;5043357;28;1790;-68
2023/10/25 08:06:19;;;;;;;;;;;;;;;19.96;59.28;99811.88;5042739;28;2010;-69
2023/10/25 08:08:48;;;;;;;;;;;;;;;19.98;59.35;99811.94;5041945;28;2133;-68
2023/10/25 08:11:15;;;;;;;;;;;;;;;19.97;59.45;99815.47;5024023;28;1964;-67
2023/10/25 08:13:43;;;;;;;;;;;;;;;19.99;59.27;99815.53;5042594;28;1980;-67
2023/10/25 08:16:09;;;;;;;;;;;;;;;20.01;59.20;99807.69;5040362;28;2219;-66
2023/10/25 08:18:35;;;;;;;;;;;;;;;20.02;59.52;99806.31;5042126;28;2027;-66
2023/10/25 08:21:02;;;;;;;;;;;;;;;20.00;59.63;99806.25;5041626;28;2244;-66
2023/10/25 08:23:29;;;;;;;;;;;;;;;20.08;59.56;99808.63;5039849;28;2050;-65
2023/10/25 08:25:59;;;;;;;;;;;;;;;20.05;59.53;99804.97;5042645;28;1626;-67
2023/10/25 08:28:25;;;;;;;;;;;;;;;20.05;59.69;99807.84;5042412;28;1575;-66
2023/10/25 08:30:51;;;;;;;;;;;;;;;20.04;59.63;99800.63;5043061;28;6420;-66
2023/10/25 08:33:18;;;;;;;;;;;;;;;20.05;59.64;99812.84;5041963;28;1611;-65
2023/10/25 08:35:44;;;;;;;;;;;;;;;20.04;59.87;99809.25;5041816;28;1621;-66
2023/10/25 08:38:11;;;;;;;;;;;;;;;20.06;59.93;99814.31;5043316;28;1697;-66
2023/10/25 08:40:40;;;;;;;;;;;;;;;20.06;59.67;99814.31;5043436;28;1844;-66
2023/10/25 08:43:07;;;;;;;;;;;;;;;20.06;59.79;99817.19;5040309;28;1922;-66
2023/10/25 08:45:36;;;;;;;;;;;;;;;20.06;59.82;99820.78;5041799;28;1902;-66
2023/10/25 08:48:03;;;;;;;;;;;;;;;20.08;59.97;99823.72;5042306;28;1599;-66
2023/10/25 08:50:30;;;;;;;;;;;;;;;20.09;59.96;99827.34;5042339;28;1662;-66
2023/10/25 08:52:57;;;;;;;;;;;;;;;20.09;59.88;99828.09;5043100;28;1765;-66
2023/10/25 08:55:23;;;;;;;;;;;;;;;20.12;59.94;99828.16;5042188;28;1820;-66
2023/10/25 08:57:56;;;;;;;;;;;;;;;20.12;59.74;99834.63;5042935;28;1560;-66
2023/10/25 09:00:23;;;;;;;;;;;;;;;20.12;59.71;99836.78;5041363;28;6074;-65
2023/10/25 09:03:04;;;;;;;;;;;;;;;20.13;59.93;99844.69;5043174;28;1922;-66
2023/10/25 09:05:38;;;;;;;;;;;;;;;20.12;60.15;99846.13;5040647;28;1642;-66
2023/10/25 09:08:13;;;;;;;;;;;;;;;20.13;60.10;99841.09;5041646;28;1937;-66
2023/10/25 09:10:40;;;;;;;;;;;;;;;20.13;60.00;99838.22;5042491;28;1737;-66
2023/10/25 09:13:13;;;;;;;;;;;;;;;20.13;60.03;99835.34;5039681;28;1651;-66
2023/10/25 09:15:39;;;;;;;;;;;;;;;20.12;60.13;99826.00;5042574;28;1825;-66
2023/10/25 09:18:06;;;;;;;;;;;;;;;20.12;60.00;99828.88;5041175;28;1630;-66
2023/10/25 09:20:32;;;;;;;;;;;;;;;20.13;59.98;99823.84;5042173;28;1618;-66
2023/10/25 09:23:08;;;;;;;;;;;;;;;20.13;60.21;99830.31;5041527;28;1987;-66
2023/10/25 09:25:37;;;;;;;;;;;;;;;20.12;60.08;99823.13;5023555;28;2161;-67
2023/10/25 09:28:03;;;;;;;;;;;;;;;20.12;60.15;99819.53;5041725;28;2066;-67
2023/10/25 09:30:30;;;;;;;;;;;;;;;20.12;60.33;99811.63;5041247;28;6243;-67
2023/10/25 09:32:57;;;;;;;;;;;;;;;19.77;60.45;99829.91;5039637;28;2621;-67
2023/10/25 09:35:23;;;;;;;;;;;;;;;19.63;60.23;99821.53;5042017;28;2152;-68
2023/10/25 09:37:50;;;;;;;;;;;;;;;19.34;59.25;99814.13;5023512;28;2206;-69
2023/10/25 09:40:16;;;;;;;;;;;;;;;19.09;58.09;99821.91;5041954;28;1589;-67
2023/10/25 09:42:45;;;;;;;;;;;;;;;19.07;58.29;99818.94;5041887;28;1918;-67
2023/10/25 09:45:11;;;;;;;;;;;;;;;19.24;58.53;99820.25;5040917;28;1873;-66
2023/10/25 09:47:41;;;;;;;;;;;;;;;19.54;57.63;99820.56;5040972;28;2074;-66
2023/10/25 09:50:14;;;;;;;;;;;;;;;19.70;57.49;99822.50;5018414;28;1797;-66
2023/10/25 09:52:41;;;;;;;;;;;;;;;19.81;57.41;99810.69;5042496;28;1626;-67
2023/10/25 09:55:10;;;;;;;;;;;;;;;19.85;57.48;99810.06;5043714;28;1597;-66
2023/10/25 09:57:36;;;;;;;;;;;;;;;19.90;58.07;99808.78;5026419;28;2216;-66
2023/10/25 10:00:05;;;;;;;;;;;;;;;19.92;58.40;99811.72;5044942;28;1984;-66
2023/10/25 10:02:39;;;;;;;;;;;;;;;19.95;58.85;99801.78;5027439;28;6389;-66
2023/10/25 10:05:07;;;;;;;;;;;;;;;19.95;58.74;99793.16;5028118;28;1547;-66
2023/10/25 10:07:45;;;;;;;;;;;;;;;19.97;59.10;99796.06;5044920;28;2066;-66
2023/10/25 10:10:20;;;;;;;;;;;;;;;19.98;59.25;99791.09;5044001;28;2082;-67
2023/10/25 10:12:46;;;;;;;;;;;;;;;19.98;59.30;99791.81;5027558;28;1801;-66
2023/10/25 10:15:14;;;;;;;;;;;;;;;19.99;59.51;99804.75;5024940;28;2317;-66
2023/10/25 10:17:41;;;;;;;;;;;;;;;19.98;59.26;99797.56;5043941;28;2197;-66
2023/10/25 10:20:07;;;;;;;;;;;;;;;20.00;59.50;99803.38;5045089;28;1614;-67
2023/10/25 10:22:34;;;;;;;;;;;;;;;20.00;59.34;99799.78;5026324;28;1914;-67
2023/10/25 10:25:00;;;;;;;;;;;;;;;20.00;59.39;99800.50;5042541;28;1691;-66
2023/10/25 10:27:51;;;;;;;;;;;;;;;20.02;59.41;99794.06;5044929;28;2386;-67
2023/10/25 10:30:32;;;;;;;;;;;;;;;20.02;59.60;99794.81;5026859;28;6794;-70
2023/10/25 10:32:59;;;;;;;;;;;;;;;20.04;59.16;99789.13;5020069;28;1968;-73
2023/10/25 10:35:26;;;;;;;;;;;;;;;20.04;59.22;99777.66;5026766;28;2257;-78
2023/10/25 10:37:53;;;;;;;;;;;;;;;20.05;59.45;99779.09;5026071;28;2048;-79
2023/10/25 10:40:20;;;;;;;;;;;;;;;19.93;59.18;99778.72;5044014;28;2097;-75
2023/10/25 10:42:46;;;;;;;;;;;;;;;19.98;59.44;99777.44;5041166;28;2140;-77
2023/10/25 10:45:13;;;;;;;;;;;;;;;20.00;59.21;99768.91;5044222;28;2308;-71
2023/10/25 10:47:44;;;;;;;;;;;;;;;20.04;59.43;99766.16;5042328;28;2193;-82
2023/10/25 10:50:14;;;;;;;;;;;;;;;20.08;59.54;99772.00;5043483;28;2086;-87
2023/10/25 10:52:41;;;;;;;;;;;;;;;20.08;59.37;99771.28;5043377;28;2144;-86
2023/10/25 10:55:08;;;;;;;;;;;;;;;20.06;59.37;99769.06;5041838;28;2177;-86
2023/10/25 10:57:34;;;;;;;;;;;;;;;20.07;59.39;99759.03;5043055;28;2189;-86
2023/10/25 11:00:04;;;;;;;;;;;;;;;20.07;59.49;99764.78;5040853;28;6603;-79
2023/10/25 11:02:31;;;;;;;;;;;;;;;20.06;59.39;99756.84;5042161;28;2180;-87
2023/10/25 11:04:57;;;;;;;;;;;;;;;20.08;59.36;99757.63;5043288;28;1630;-89
2023/10/25 11:07:24;;;;;;;;;;;;;;;20.11;59.29;99757.69;5043898;28;2092;-88
2023/10/25 11:09:50;;;;;;;;;;;;;;;20.12;59.29;99756.31;5044130;28;1687;-87
2023/10/25 11:12:17;;;;;;;;;;;;;;;20.11;59.47;99754.81;5045036;28;1605;-88
2023/10/25 11:14:44;;;;;;;;;;;;;;;20.11;59.38;99754.81;5026110;28;1618;-89
2023/10/25 11:17:11;;;;;;;;;;;;;;;20.10;59.28;99756.97;5045919;28;1824;-87
2023/10/25 11:19:37;;;;;;;;;;;;;;;20.10;59.34;99751.22;5043186;28;2046;-87
2023/10/25 11:22:03;;;;;;;;;;;;;;;20.11;59.53;99749.78;5043744;28;1922;-86
2023/10/25 11:24:30;;;;;;;;;;;;;;;20.11;59.28;99740.44;5044337;28;1528;-86
2023/10/25 11:26:56;;;;;;;;;;;;;;;20.11;59.52;99744.03;5027615;28;1828;-84
2023/10/25 11:29:23;;;;;;;;;;;;;;;20.11;59.40;99746.19;5041896;28;1623;-85
2023/10/25 11:31:49;;;;;;;;;;;;;;;20.09;59.69;99733.25;5042864;28;6206;-87
2023/10/25 11:34:19;;;;;;;;;;;;;;;20.08;59.55;99734.63;5043541;28;1583;-86
2023/10/25 11:36:46;;;;;;;;;;;;;;;20.08;59.76;99723.13;5042814;28;1769;-84
2023/10/25 11:39:12;;;;;;;;;;;;;;;20.09;59.66;99721.75;5043076;28;1645;-84
2023/10/25 11:41:39;;;;;;;;;;;;;;;20.11;59.68;99712.44;5044237;28;1578;-86
2023/10/25 11:44:06;;;;;;;;;;;;;;;20.09;59.89;99707.38;5042807;28;1918;-84
2023/10/25 11:46:34;;;;;;;;;;;;;;;20.14;59.71;99710.38;5044306;28;1852;-84
2023/10/25 11:49:00;;;;;;;;;;;;;;;20.15;59.65;99703.22;5040693;28;1591;-84
2023/10/25 11:51:27;;;;;;;;;;;;;;;20.14;59.75;99699.59;5026907;28;1792;-84
2023/10/25 11:53:53;;;;;;;;;;;;;;;20.14;59.90;99687.38;5043610;28;1657;-84
2023/10/25 11:56:24;;;;;;;;;;;;;;;20.14;59.84;99688.13;5041658;28;1797;-85
2023/10/25 11:58:51;;;;;;;;;;;;;;;20.16;60.00;99691.06;5043809;28;1694;-85
2023/10/25 12:01:17;;;;;;;;;;;;;;;20.15;60.09;99688.84;5042723;28;6048;-87
2023/10/25 12:03:44;;;;;;;;;;;;;;;20.14;60.07;99699.59;5041947;28;2209;-84
2023/10/25 12:06:11;;;;;;;;;;;;;;;20.13;60.17;99698.13;5039359;28;2062;-82
2023/10/25 12:08:41;;;;;;;;;;;;;;;20.18;60.03;99693.22;5041947;28;2067;-83
2023/10/25 12:11:10;;;;;;;;;;;;;;;20.17;60.11;99686.75;5040881;28;2251;-87
2023/10/25 12:13:37;;;;;;;;;;;;;;;20.17;60.14;99691.78;5041181;28;2070;-86
2023/10/25 12:16:04;;;;;;;;;;;;;;;20.18;60.06;99682.50;5041522;28;2015;-86
2023/10/25 12:18:33;;;;;;;;;;;;;;;20.17;59.91;99677.41;5024329;28;2205;-86
2023/10/25 12:21:00;;;;;;;;;;;;;;;20.21;60.00;99663.16;5041382;28;2181;-86
2023/10/25 12:23:27;;;;;;;;;;;;;;;20.18;60.21;99662.38;5039878;28;2145;-86
2023/10/25 12:25:53;;;;;;;;;;;;;;;20.21;59.95;99648.78;5041824;28;2069;-86
2023/10/25 12:28:20;;;;;;;;;;;;;;;20.20;60.16;99650.19;5024316;28;2180;-86
2023/10/25 12:30:46;;;;;;;;;;;;;;;20.21;60.24;99651.66;5041412;28;6022;-86
2023/10/25 12:33:12;;;;;;;;;;;;;;;20.22;59.98;99647.38;5040503;28;2079;-86
2023/10/25 12:35:39;;;;;;;;;;;;;;;20.21;60.06;99652.38;5041245;28;2156;-85
2023/10/25 12:38:06;;;;;;;;;;;;;;;20.22;60.05;99647.38;5040518;28;2113;-85
2023/10/25 12:40:32;;;;;;;;;;;;;;;20.22;60.03;99641.63;5041673;28;2158;-86
2023/10/25 12:42:59;;;;;;;;;;;;;;;20.24;60.12;99641.66;5040761;28;2168;-87
2023/10/25 12:45:25;;;;;;;;;;;;;;;20.25;60.03;99635.25;5040995;28;2087;-86
2023/10/25 12:47:51;;;;;;;;;;;;;;;20.24;60.34;99628.03;5039054;28;2154;-85
2023/10/25 12:50:18;;;;;;;;;;;;;;;20.24;60.27;99633.06;5041427;28;2062;-85
2023/10/25 12:52:44;;;;;;;;;;;;;;;20.26;59.87;99630.22;5039057;28;2296;-89
2023/10/25 12:55:11;;;;;;;;;;;;;;;20.25;60.18;99623.03;5042089;28;2189;-85
2023/10/25 12:57:38;;;;;;;;;;;;;;;20.31;60.14;99637.56;5035593;28;2333;-84